createdAt,value
2018-05-23T00:00:02.670Z,85.80
2018-05-23T00:02:31.123Z,86.10
2018-05-23T00:04:59.587Z,87.40
2018-05-23T00:07:27.703Z,87.00
2018-05-23T00:09:56.146Z,87.30
2018-05-23T00:12:24.580Z,87.70
2018-05-23T00:14:53.311Z,86.70
2018-05-23T00:17:22.527Z,86.20
2018-05-23T00:19:50.976Z,86.30
2018-05-23T00:22:19.424Z,86.20
2018-05-23T00:24:47.859Z,85.60
2018-05-23T00:27:16.303Z,87.70
2018-05-23T00:29:44.755Z,87.30
2018-05-23T00:32:13.198Z,87.20
2018-05-23T00:34:41.652Z,86.90
2018-05-23T00:37:10.146Z,86.50
2018-05-23T00:39:38.596Z,86.50
2018-05-23T00:42:07.756Z,86.30
2018-05-23T00:44:36.206Z,86.60
2018-05-23T00:47:04.652Z,86.10
2018-05-23T00:49:33.865Z,86.50
2018-05-23T00:52:02.304Z,86.40
2018-05-23T00:54:30.754Z,87.00
2018-05-23T00:56:59.224Z,87.40
2018-05-23T00:59:27.672Z,87.10
2018-05-23T01:01:56.123Z,88.40
2018-05-23T01:04:24.569Z,86.30
2018-05-23T01:06:53.007Z,86.70
2018-05-23T01:09:21.448Z,87.00
2018-05-23T01:11:50.651Z,87.30
2018-05-23T01:14:19.091Z,87.20
2018-05-23T01:16:47.535Z,85.80
2018-05-23T01:19:15.980Z,86.10
2018-05-23T01:21:44.423Z,86.40
2018-05-23T01:24:12.878Z,87.30
2018-05-23T01:26:41.495Z,89.10
2018-05-23T01:29:09.943Z,85.70
2018-05-23T01:31:38.049Z,86.60
2018-05-23T01:34:06.496Z,87.00
2018-05-23T01:36:34.936Z,86.30
2018-05-23T01:39:03.071Z,88.70
2018-05-23T01:41:31.509Z,86.30
2018-05-23T01:43:59.971Z,86.90
2018-05-23T01:46:28.723Z,86.30
2018-05-23T01:49:08.385Z,86.60
2018-05-23T01:51:36.839Z,86.90
2018-05-23T01:54:05.312Z,87.10
2018-05-23T01:56:34.267Z,87.60
2018-05-23T01:59:02.727Z,87.80
2018-05-23T02:01:31.182Z,88.20
2018-05-23T02:03:59.638Z,88.10
2018-05-23T02:06:28.089Z,87.50
2018-05-23T02:08:57.204Z,87.60
2018-05-23T02:11:26.407Z,87.80
2018-05-23T02:13:54.550Z,87.70
2018-05-23T02:16:23.000Z,88.70
2018-05-23T02:18:51.486Z,88.20
2018-05-23T02:21:19.935Z,87.20
2018-05-23T02:23:48.380Z,88.10
2018-05-23T02:26:16.886Z,87.70
2018-05-23T02:28:45.475Z,88.30
2018-05-23T02:31:13.917Z,88.90
2018-05-23T02:33:42.352Z,88.00
2018-05-23T02:36:10.658Z,88.90
2018-05-23T02:38:39.124Z,88.20
2018-05-23T02:41:07.579Z,88.20
2018-05-23T02:43:36.787Z,90.20
2018-05-23T02:46:05.002Z,90.20
2018-05-23T02:48:33.457Z,89.70
2018-05-23T02:51:01.903Z,89.70
2018-05-23T02:53:30.349Z,90.60
2018-05-23T02:55:58.803Z,90.10
2018-05-23T02:58:27.272Z,89.70
2018-05-23T03:00:55.722Z,90.20
2018-05-23T03:03:24.162Z,89.60
2018-05-23T03:05:52.608Z,90.30
2018-05-23T03:08:21.091Z,90.20
2018-05-23T03:10:49.531Z,90.20
2018-05-23T03:13:18.083Z,90.50
2018-05-23T03:15:46.522Z,90.50
2018-05-23T03:18:15.000Z,90.20
2018-05-23T03:20:43.438Z,90.10
2018-05-23T03:23:11.880Z,90.20
2018-05-23T03:25:40.315Z,90.10
2018-05-23T03:28:08.760Z,89.80
2018-05-23T03:30:37.222Z,89.80
2018-05-23T03:33:06.427Z,90.00
2018-05-23T03:35:34.875Z,90.00
2018-05-23T03:38:03.309Z,89.30
2018-05-23T03:40:31.750Z,89.60
2018-05-23T03:43:00.192Z,90.00
2018-05-23T03:45:28.641Z,90.80
2018-05-23T03:47:57.099Z,90.70
2018-05-23T03:50:25.543Z,90.30
2018-05-23T03:52:53.999Z,90.10
2018-05-23T03:55:22.480Z,90.40
2018-05-23T03:57:51.076Z,90.30
2018-05-23T04:00:30.507Z,90.40
2018-05-23T04:03:10.129Z,90.60
2018-05-23T04:05:49.695Z,90.80
2018-05-23T04:08:18.130Z,91.10
2018-05-23T04:10:46.582Z,90.90
2018-05-23T04:13:15.028Z,90.90
2018-05-23T04:15:43.477Z,91.00
2018-05-23T04:18:12.204Z,90.70
2018-05-23T04:20:40.677Z,91.20
2018-05-23T04:23:09.860Z,90.80
2018-05-23T04:25:38.307Z,90.90
2018-05-23T04:28:06.755Z,91.20
2018-05-23T04:30:34.887Z,91.60
2018-05-23T04:33:03.330Z,90.50
2018-05-23T04:35:31.804Z,90.60
2018-05-23T04:38:00.247Z,90.40
2018-05-23T04:40:28.707Z,91.00
2018-05-23T04:42:57.161Z,90.50
2018-05-23T04:45:25.633Z,90.30
2018-05-23T04:47:54.078Z,90.20
2018-05-23T04:50:23.367Z,90.20
2018-05-23T04:52:52.583Z,90.30
2018-05-23T04:55:21.052Z,90.30
2018-05-23T04:57:49.498Z,90.00
2018-05-23T05:00:18.771Z,89.40
2018-05-23T05:02:48.535Z,89.40
2018-05-23T05:05:17.311Z,89.00
2018-05-23T05:07:45.763Z,88.30
2018-05-23T05:10:14.219Z,87.60
2018-05-23T05:12:42.332Z,84.70
2018-05-23T05:15:11.200Z,85.20
2018-05-23T05:17:39.639Z,86.70
2018-05-23T05:20:08.090Z,86.20
2018-05-23T05:22:36.535Z,86.50
2018-05-23T05:25:05.066Z,85.10
2018-05-23T05:27:33.631Z,85.50
2018-05-23T05:30:02.074Z,84.70
2018-05-23T05:32:30.524Z,84.00
2018-05-23T05:34:58.967Z,82.10
2018-05-23T05:37:27.418Z,81.60
2018-05-23T05:39:55.863Z,81.00
2018-05-23T05:42:24.347Z,80.90
2018-05-23T05:44:52.811Z,81.20
2018-05-23T05:47:21.328Z,79.80
2018-05-23T05:49:49.770Z,81.10
2018-05-23T05:52:18.235Z,81.60
2018-05-23T05:54:46.678Z,82.50
2018-05-23T05:57:15.127Z,80.70
2018-05-23T05:59:44.339Z,79.50
2018-05-23T06:02:12.780Z,79.40
2018-05-23T06:04:41.219Z,80.20
2018-05-23T06:07:09.663Z,79.00
2018-05-23T06:09:38.259Z,79.50
2018-05-23T06:12:06.808Z,77.70
2018-05-23T06:14:35.263Z,79.00
2018-05-23T06:17:04.703Z,78.20
2018-05-23T06:19:33.149Z,75.70
2018-05-23T06:22:01.599Z,74.90
2018-05-23T06:24:30.135Z,74.30
2018-05-23T06:26:58.683Z,72.70
2018-05-23T06:29:28.342Z,72.00
2018-05-23T06:31:56.791Z,72.90
2018-05-23T06:34:26.217Z,69.20
2018-05-23T06:36:54.663Z,69.10
2018-05-23T06:39:23.109Z,70.00
2018-05-23T06:41:51.546Z,69.30
2018-05-23T06:44:19.999Z,69.80
2018-05-23T06:46:48.448Z,69.50
2018-05-23T06:49:16.926Z,67.70
2018-05-23T06:51:45.408Z,66.30
2018-05-23T06:54:13.858Z,66.40
2018-05-23T06:56:42.333Z,66.50
2018-05-23T06:59:10.795Z,67.60
2018-05-23T07:01:39.263Z,65.60
2018-05-23T07:04:07.710Z,66.40
2018-05-23T07:06:36.159Z,65.50
2018-05-23T07:09:03.831Z,69.60
2018-05-23T07:11:32.275Z,68.10
2018-05-23T07:14:00.721Z,68.10
2018-05-23T07:16:29.156Z,68.80
2018-05-23T07:18:58.370Z,64.90
2018-05-23T07:21:27.328Z,64.90
2018-05-23T07:23:55.788Z,64.70
2018-05-23T07:26:24.227Z,65.20
2018-05-23T07:28:52.667Z,66.40
2018-05-23T07:31:21.111Z,65.90
2018-05-23T07:33:49.555Z,65.20
2018-05-23T07:36:17.996Z,64.50
2018-05-23T07:38:47.211Z,64.40
2018-05-23T07:41:15.662Z,64.40
2018-05-23T07:43:44.104Z,62.30
2018-05-23T07:46:13.681Z,60.50
2018-05-23T07:48:42.131Z,59.50
2018-05-23T07:51:10.583Z,59.40
2018-05-23T07:53:39.031Z,60.20
2018-05-23T07:56:07.480Z,60.20
2018-05-23T07:58:35.928Z,59.40
2018-05-23T08:01:04.371Z,57.70
2018-05-23T08:03:32.812Z,57.10
2018-05-23T08:06:00.952Z,56.70
2018-05-23T08:08:29.396Z,59.60
2018-05-23T08:10:58.611Z,52.60
2018-05-23T08:13:28.192Z,52.60
2018-05-23T08:15:56.645Z,51.50
2018-05-23T08:18:25.095Z,52.20
2018-05-23T08:20:54.303Z,51.30
2018-05-23T08:23:22.747Z,51.30
2018-05-23T08:25:51.195Z,52.40
2018-05-23T08:28:19.635Z,53.50
2018-05-23T08:30:48.081Z,53.00
2018-05-23T08:33:16.519Z,54.10
2018-05-23T08:35:44.959Z,54.50
2018-05-23T08:38:13.405Z,55.30
2018-05-23T08:40:41.854Z,55.40
2018-05-23T08:43:10.300Z,55.80
2018-05-23T08:45:38.912Z,56.10
2018-05-23T08:48:08.119Z,56.20
2018-05-23T08:50:36.582Z,56.20
2018-05-23T08:53:05.028Z,57.50
2018-05-23T08:55:33.480Z,58.40
2018-05-23T08:58:02.119Z,56.10
2018-05-23T09:00:30.567Z,53.60
2018-05-23T09:02:59.040Z,53.40
2018-05-23T09:05:27.491Z,51.80
2018-05-23T09:07:55.951Z,50.80
2018-05-23T09:10:24.396Z,51.00
2018-05-23T09:12:52.840Z,52.30
2018-05-23T09:15:21.285Z,49.40
2018-05-23T09:17:49.064Z,49.60
2018-05-23T09:20:17.512Z,53.40
2018-05-23T09:22:45.957Z,54.00
2018-05-23T09:25:14.407Z,52.40
2018-05-23T09:27:42.846Z,52.30
2018-05-23T09:30:11.294Z,51.60
2018-05-23T09:32:39.760Z,52.10
2018-05-23T09:35:08.198Z,51.30
2018-05-23T09:37:36.646Z,51.90
2018-05-23T09:40:05.855Z,51.90
2018-05-23T09:42:34.297Z,51.90
2018-05-23T09:45:02.814Z,50.70
2018-05-23T09:47:31.398Z,51.10
2018-05-23T09:49:59.848Z,50.40
2018-05-23T09:52:28.288Z,51.80
2018-05-23T09:54:56.740Z,49.80
2018-05-23T09:57:26.343Z,48.80
2018-05-23T09:59:54.800Z,48.50
2018-05-23T10:02:23.244Z,48.50
2018-05-23T10:04:51.693Z,49.40
2018-05-23T10:07:20.126Z,48.60
2018-05-23T10:09:48.720Z,49.20
2018-05-23T10:12:17.162Z,48.60
2018-05-23T10:14:45.608Z,47.90
2018-05-23T10:17:14.055Z,49.00
2018-05-23T10:19:42.506Z,47.70
2018-05-23T10:22:10.938Z,49.20
2018-05-23T10:24:39.392Z,48.80
2018-05-23T10:27:07.508Z,47.30
2018-05-23T10:29:35.961Z,46.90
2018-05-23T10:32:04.421Z,47.20
2018-05-23T10:34:32.868Z,50.20
2018-05-23T10:37:01.315Z,48.40
2018-05-23T10:39:30.390Z,48.10
2018-05-23T10:41:59.781Z,48.60
2018-05-23T10:44:28.223Z,50.10
2018-05-23T10:46:57.476Z,50.40
2018-05-23T10:49:25.969Z,49.70
2018-05-23T10:51:55.497Z,50.50
2018-05-23T10:54:25.500Z,48.30
2018-05-23T10:56:54.130Z,49.30
2018-05-23T10:59:33.895Z,51.00
2018-05-23T11:02:04.498Z,50.30
2018-05-23T11:07:41.768Z,52.50
2018-05-23T11:10:11.240Z,52.60
2018-05-23T11:12:41.485Z,52.70
2018-05-23T11:15:10.161Z,51.50
2018-05-23T11:20:15.737Z,52.30
2018-05-23T11:22:44.467Z,52.30
2018-05-23T11:25:16.962Z,52.00
2018-05-23T11:27:46.341Z,52.00
2018-05-23T11:30:14.792Z,50.50
2018-05-23T11:32:43.251Z,52.60
2018-05-23T11:35:11.695Z,51.80
2018-05-23T11:37:40.151Z,50.70
2018-05-23T11:40:09.867Z,52.00
2018-05-23T11:42:38.328Z,51.90
2018-05-23T11:45:07.727Z,51.10
2018-05-23T11:47:36.186Z,51.30
2018-05-23T11:50:04.310Z,50.60
2018-05-23T11:52:32.771Z,52.40
2018-05-23T11:55:01.564Z,50.90
2018-05-23T11:57:30.018Z,50.40
2018-05-23T11:59:58.504Z,50.50
2018-05-23T12:02:26.952Z,50.80
2018-05-23T12:04:55.424Z,50.60
2018-05-23T12:07:23.879Z,51.60
2018-05-23T12:09:52.347Z,52.30
2018-05-23T12:12:20.791Z,52.20
2018-05-23T12:14:49.265Z,52.50
2018-05-23T12:17:17.725Z,51.90
2018-05-23T12:19:47.668Z,51.80
2018-05-23T12:22:16.117Z,51.60
2018-05-23T12:24:44.598Z,52.70
2018-05-23T12:27:13.495Z,51.50
2018-05-23T12:29:42.687Z,51.20
2018-05-23T12:32:11.139Z,51.40
2018-05-23T12:34:39.601Z,50.70
2018-05-23T12:37:08.905Z,51.30
2018-05-23T12:39:37.364Z,51.70
2018-05-23T12:42:06.800Z,52.20
2018-05-23T12:44:35.271Z,51.70
2018-05-23T12:47:03.731Z,52.50
2018-05-23T12:49:33.652Z,49.60
2018-05-23T12:52:02.838Z,49.60
2018-05-23T12:54:42.778Z,48.70
2018-05-23T12:57:11.655Z,49.80
2018-05-23T12:59:40.946Z,49.70
2018-05-23T13:02:09.399Z,49.40
2018-05-23T13:04:37.848Z,48.50
2018-05-23T13:07:07.364Z,47.80
2018-05-23T13:09:35.977Z,47.80
2018-05-23T13:12:07.215Z,47.30
2018-05-23T13:14:36.932Z,48.50
2018-05-23T13:17:05.382Z,48.60
2018-05-23T13:19:35.950Z,47.00
2018-05-23T13:22:04.405Z,47.00
2018-05-23T13:24:33.820Z,47.20
2018-05-23T13:29:49.756Z,50.20
2018-05-23T13:32:18.199Z,49.00
2018-05-23T13:34:46.650Z,47.30
2018-05-23T13:37:16.028Z,46.70
2018-05-23T13:39:44.493Z,47.70
2018-05-23T13:42:12.963Z,46.90
2018-05-23T13:44:41.408Z,47.10
2018-05-23T13:47:09.852Z,46.40
2018-05-23T13:49:38.304Z,45.90
2018-05-23T13:52:06.568Z,45.90
2018-05-23T13:54:36.657Z,47.50
2018-05-23T13:57:05.100Z,46.20
2018-05-23T13:59:33.557Z,46.30
2018-05-23T14:02:01.997Z,45.70
2018-05-23T14:08:01.236Z,46.80
2018-05-23T14:10:29.679Z,45.90
2018-05-23T14:12:58.134Z,45.60
2018-05-23T14:15:26.590Z,45.90
2018-05-23T14:17:55.036Z,46.20
2018-05-23T14:20:23.491Z,45.30
2018-05-23T14:22:51.940Z,45.50
2018-05-23T14:25:21.485Z,47.20
2018-05-23T14:27:49.935Z,47.20
2018-05-23T14:30:18.392Z,46.70
2018-05-23T14:32:47.603Z,44.40
2018-05-23T14:35:16.057Z,44.40
2018-05-23T14:37:44.503Z,44.60
2018-05-23T14:40:12.953Z,43.60
2018-05-23T14:42:41.399Z,43.70
2018-05-23T14:45:09.843Z,44.10
2018-05-23T14:47:38.283Z,44.50
2018-05-23T14:50:07.523Z,45.70
2018-05-23T14:52:36.127Z,45.60
2018-05-23T14:55:04.559Z,44.40
2018-05-23T14:57:33.732Z,45.60
2018-05-23T15:00:02.889Z,45.50
2018-05-23T15:02:31.434Z,45.20
2018-05-23T15:04:59.993Z,44.10
2018-05-23T15:07:28.435Z,43.20
2018-05-23T15:09:56.881Z,43.70
2018-05-23T15:12:25.337Z,43.50
2018-05-23T15:14:54.560Z,44.10
2018-05-23T15:17:23.009Z,44.10
2018-05-23T15:19:51.506Z,44.80
2018-05-23T15:22:20.103Z,44.60
2018-05-23T15:24:48.216Z,45.20
2018-05-23T15:27:16.417Z,44.30
2018-05-23T15:29:44.983Z,43.20
2018-05-23T15:32:13.429Z,43.80
2018-05-23T15:34:41.864Z,44.10
2018-05-23T15:37:10.806Z,44.40
2018-05-23T15:39:39.246Z,43.60
2018-05-23T15:42:07.701Z,42.90
2018-05-23T15:44:36.155Z,42.70
2018-05-23T15:47:04.640Z,41.40
2018-05-23T15:49:33.104Z,41.50
2018-05-23T15:52:01.661Z,41.90
2018-05-23T15:54:30.116Z,41.30
2018-05-23T15:56:58.654Z,41.80
2018-05-23T15:59:27.215Z,40.70
2018-05-23T16:01:55.349Z,42.90
2018-05-23T16:04:24.535Z,43.00
2018-05-23T16:06:52.999Z,41.50
2018-05-23T16:09:21.547Z,41.30
2018-05-23T16:11:50.854Z,42.60
2018-05-23T16:14:19.325Z,42.60
2018-05-23T16:16:47.777Z,42.20
2018-05-23T16:19:16.228Z,41.60
2018-05-23T16:21:45.450Z,42.20
2018-05-23T16:24:13.971Z,42.20
2018-05-23T16:26:42.412Z,42.70
2018-05-23T16:29:10.856Z,42.30
2018-05-23T16:31:39.307Z,43.30
2018-05-23T16:34:08.692Z,42.50
2018-05-23T16:36:38.788Z,42.40
2018-05-23T16:39:06.917Z,43.50
2018-05-23T16:41:35.375Z,42.70
2018-05-23T16:44:03.819Z,42.60
2018-05-23T16:46:32.271Z,41.80
2018-05-23T16:49:00.719Z,42.30
2018-05-23T16:51:30.103Z,41.90
2018-05-23T16:53:58.389Z,43.00
2018-05-23T16:56:26.845Z,41.80
2018-05-23T16:58:55.655Z,42.30
2018-05-23T17:01:27.195Z,42.90
2018-05-23T17:03:55.704Z,43.30
2018-05-23T17:06:26.077Z,42.80
2018-05-23T17:08:54.681Z,41.80
2018-05-23T17:11:24.027Z,41.30
2018-05-23T17:13:52.855Z,40.80
2018-05-23T17:16:21.305Z,40.00
2018-05-23T17:18:49.901Z,40.00
2018-05-23T17:21:18.352Z,40.80
2018-05-23T17:23:47.420Z,40.10
2018-05-23T17:26:15.863Z,40.70
2018-05-23T17:28:45.511Z,41.30
2018-05-23T17:31:13.826Z,41.40
2018-05-23T17:33:42.308Z,41.80
2018-05-23T17:36:11.406Z,41.90
2018-05-23T17:38:39.872Z,41.00
2018-05-23T17:41:08.319Z,41.90
2018-05-23T17:43:37.909Z,42.10
2018-05-23T17:46:06.030Z,41.90
2018-05-23T17:48:34.500Z,41.00
2018-05-23T17:51:04.052Z,40.80
2018-05-23T17:53:33.363Z,40.80
2018-05-23T17:56:02.246Z,42.10
2018-05-23T17:58:30.750Z,41.70
2018-05-23T18:01:00.119Z,41.40
2018-05-23T18:03:29.257Z,42.40
2018-05-23T18:05:57.714Z,42.10
2018-05-23T18:08:27.303Z,42.60
2018-05-23T18:10:57.367Z,43.00
2018-05-23T18:13:33.195Z,42.50
2018-05-23T18:16:07.364Z,42.50
2018-05-23T18:18:36.863Z,43.00
2018-05-23T18:21:06.133Z,44.80
2018-05-23T18:23:34.748Z,43.40
2018-05-23T18:26:03.565Z,44.80
2018-05-23T18:28:32.084Z,43.40
2018-05-23T18:31:00.639Z,44.20
2018-05-23T18:33:29.099Z,43.10
2018-05-23T18:35:59.636Z,43.70
2018-05-23T18:38:28.191Z,43.60
2018-05-23T18:40:58.156Z,44.80
2018-05-23T18:43:28.524Z,43.80
2018-05-23T18:45:57.922Z,45.50
2018-05-23T18:48:26.386Z,45.10
2018-05-23T18:50:56.079Z,44.30
2018-05-23T18:53:24.540Z,44.30
2018-05-23T18:55:53.115Z,44.70
2018-05-23T18:58:21.572Z,46.80
2018-05-23T19:00:50.686Z,46.80
2018-05-23T19:03:20.258Z,45.70
2018-05-23T19:05:48.401Z,48.30
2018-05-23T19:08:16.990Z,48.20
2018-05-23T19:10:46.424Z,47.50
2018-05-23T19:13:15.480Z,47.20
2018-05-23T19:15:43.977Z,47.20
2018-05-23T19:18:13.308Z,52.20
2018-05-23T19:20:42.544Z,50.90
2018-05-23T19:23:12.123Z,48.90
2018-05-23T19:25:40.584Z,48.90
2018-05-23T19:28:09.037Z,52.10
2018-05-23T19:30:37.595Z,51.30
2018-05-23T19:33:06.077Z,53.60
2018-05-23T19:35:36.275Z,52.10
2018-05-23T19:38:06.199Z,52.40
2018-05-23T19:40:34.347Z,53.10
2018-05-23T19:43:04.124Z,51.70
2018-05-23T19:45:33.303Z,53.40
2018-05-23T19:48:01.766Z,55.60
2018-05-23T19:50:31.243Z,56.60
2018-05-23T19:52:59.857Z,58.00
2018-05-23T19:55:28.437Z,59.70
2018-05-23T19:57:56.886Z,54.90
2018-05-23T20:00:25.340Z,57.40
2018-05-23T20:02:54.354Z,57.10
2018-05-23T20:05:22.808Z,55.70
2018-05-23T20:07:51.281Z,55.60
2018-05-23T20:10:19.931Z,56.50
2018-05-23T20:12:48.381Z,56.20
2018-05-23T20:15:17.650Z,58.40
2018-05-23T20:17:46.108Z,57.80
2018-05-23T20:20:14.548Z,57.00
2018-05-23T20:22:43.701Z,59.20
2018-05-23T20:25:12.288Z,61.30
2018-05-23T20:27:41.917Z,60.40
2018-05-23T20:30:11.768Z,62.10
2018-05-23T20:32:40.837Z,62.20
2018-05-23T20:35:10.298Z,58.30
2018-05-23T20:37:38.871Z,63.80
2018-05-23T20:40:07.018Z,60.90
2018-05-23T20:42:35.467Z,62.70
2018-05-23T20:45:03.557Z,63.00
2018-05-23T20:47:32.008Z,62.70
2018-05-23T20:50:01.902Z,62.60
2018-05-23T20:52:30.354Z,62.40
2018-05-23T20:54:58.807Z,58.40
2018-05-23T20:57:27.243Z,61.50
2018-05-23T20:59:55.706Z,63.60
2018-05-23T21:02:24.147Z,64.60
2018-05-23T21:04:52.631Z,58.70
2018-05-23T21:07:21.844Z,62.70
2018-05-23T21:09:50.312Z,62.50
2018-05-23T21:12:19.087Z,61.50
2018-05-23T21:14:48.322Z,64.40
2018-05-23T21:17:17.194Z,64.30
2018-05-23T21:19:45.645Z,66.00
2018-05-23T21:22:14.109Z,63.60
2018-05-23T21:24:43.710Z,64.00
2018-05-23T21:27:12.154Z,63.00
2018-05-23T21:29:40.591Z,65.80
2018-05-23T21:32:09.293Z,60.00
2018-05-23T21:34:37.792Z,64.80
2018-05-23T21:37:06.379Z,62.40
2018-05-23T21:39:35.197Z,58.70
2018-05-23T21:42:03.650Z,59.30
2018-05-23T21:44:32.807Z,58.20
2018-05-23T21:47:01.256Z,59.30
2018-05-23T21:49:29.709Z,61.20
2018-05-23T21:51:58.169Z,57.80
2018-05-23T21:54:26.616Z,59.70
2018-05-23T21:56:54.948Z,60.40
2018-05-23T21:59:25.100Z,59.10
2018-05-23T22:01:53.729Z,59.10
2018-05-23T22:04:22.179Z,60.00
2018-05-23T22:06:50.639Z,61.30
2018-05-23T22:09:19.080Z,58.80
2018-05-23T22:11:47.527Z,58.50
2018-05-23T22:14:15.976Z,61.20
2018-05-23T22:16:44.238Z,62.80
2018-05-23T22:19:13.453Z,59.30
2018-05-23T22:21:41.912Z,59.20
2018-05-23T22:24:10.599Z,58.60
2018-05-23T22:26:39.063Z,62.10
2018-05-23T22:29:07.511Z,62.50
2018-05-23T22:31:36.602Z,58.20
2018-05-23T23:17:45.403Z,56.50
2018-05-23T23:20:14.615Z,56.30
2018-05-23T23:22:44.155Z,56.40
2018-05-23T23:25:12.611Z,58.70
2018-05-23T23:27:41.069Z,60.10
2018-05-23T23:30:09.680Z,57.50
2018-05-23T23:32:38.122Z,57.80
2018-05-23T23:35:07.376Z,56.50
2018-05-23T23:37:35.834Z,57.40
2018-05-23T23:40:03.945Z,54.80
2018-05-23T23:42:32.386Z,55.70
2018-05-23T23:45:01.452Z,59.10
2018-05-23T23:47:29.889Z,58.40
2018-05-23T23:49:58.103Z,58.40
2018-05-23T23:52:26.551Z,56.80
2018-05-23T23:54:54.994Z,56.80
2018-05-23T23:57:24.199Z,55.90
2018-05-23T23:59:52.645Z,55.90
